sensor_id;sensor_type;location;lat;lon;timestamp;temperature;humidity
25963;DHT22;13760;52.588;13.406;2022-07-10T00:00:35;13.90;99.90
25963;DHT22;13760;52.588;13.406;2022-07-10T00:03:02;13.90;99.90
25963;DHT22;13760;52.588;13.406;2022-07-10T00:05:28;14.00;99.90
25963;DHT22;13760;52.588;13.406;2022-07-10T00:07:54;14.00;99.90
25963;DHT22;13760;52.588;13.406;2022-07-10T00:10:20;14.00;99.90
25963;DHT22;13760;52.588;13.406;2022-07-10T00:12:47;13.90;99.90
25963;DHT22;13760;52.588;13.406;2022-07-10T00:15:14;14.00;99.90
25963;DHT22;13760;52.588;13.406;2022-07-10T00:17:41;14.00;99.90
25963;DHT22;13760;52.588;13.406;2022-07-10T00:20:08;14.00;99.90
25963;DHT22;13760;52.588;13.406;2022-07-10T00:22:34;14.00;99.90
25963;DHT22;13760;52.588;13.406;2022-07-10T00:25:01;14.00;99.90
25963;DHT22;13760;52.588;13.406;2022-07-10T00:27:27;14.00;99.90
25963;DHT22;13760;52.588;13.406;2022-07-10T00:29:53;14.10;99.90
25963;DHT22;13760;52.588;13.406;2022-07-10T00:32:18;14.00;99.90
25963;DHT22;13760;52.588;13.406;2022-07-10T00:34:44;14.10;99.90
25963;DHT22;13760;52.588;13.406;2022-07-10T00:37:09;14.10;99.90
25963;DHT22;13760;52.588;13.406;2022-07-10T00:39:36;14.00;99.90
25963;DHT22;13760;52.588;13.406;2022-07-10T00:42:12;14.10;99.90
25963;DHT22;13760;52.588;13.406;2022-07-10T00:44:39;14.10;99.90
25963;DHT22;13760;52.588;13.406;2022-07-10T00:47:06;14.10;99.90
25963;DHT22;13760;52.588;13.406;2022-07-10T00:49:33;14.10;99.90
25963;DHT22;13760;52.588;13.406;2022-07-10T00:52:01;14.10;99.90
25963;DHT22;13760;52.588;13.406;2022-07-10T00:54:29;14.10;99.90
25963;DHT22;13760;52.588;13.406;2022-07-10T00:56:56;14.10;99.90
25963;DHT22;13760;52.588;13.406;2022-07-10T00:59:22;14.10;99.90
25963;DHT22;13760;52.588;13.406;2022-07-10T01:01:49;14.10;99.90
25963;DHT22;13760;52.588;13.406;2022-07-10T01:04:16;14.10;99.90
25963;DHT22;13760;52.588;13.406;2022-07-10T01:06:41;14.10;99.90
25963;DHT22;13760;52.588;13.406;2022-07-10T01:09:07;14.10;99.90
25963;DHT22;13760;52.588;13.406;2022-07-10T01:11:33;14.10;99.90
25963;DHT22;13760;52.588;13.406;2022-07-10T01:14:00;14.10;99.90
25963;DHT22;13760;52.588;13.406;2022-07-10T01:16:26;14.10;99.90
25963;DHT22;13760;52.588;13.406;2022-07-10T01:18:51;14.10;99.90
25963;DHT22;13760;52.588;13.406;2022-07-10T01:21:31;14.10;99.90
25963;DHT22;13760;52.588;13.406;2022-07-10T01:23:58;14.10;99.90
25963;DHT22;13760;52.588;13.406;2022-07-10T01:26:25;14.10;99.90
25963;DHT22;13760;52.588;13.406;2022-07-10T01:28:52;14.10;99.90
25963;DHT22;13760;52.588;13.406;2022-07-10T01:31:19;14.10;99.90
25963;DHT22;13760;52.588;13.406;2022-07-10T01:33:46;14.10;99.90
25963;DHT22;13760;52.588;13.406;2022-07-10T01:36:12;14.10;99.90
25963;DHT22;13760;52.588;13.406;2022-07-10T01:38:39;14.10;99.90
25963;DHT22;13760;52.588;13.406;2022-07-10T01:41:06;14.10;99.90
25963;DHT22;13760;52.588;13.406;2022-07-10T01:43:35;14.10;99.90
25963;DHT22;13760;52.588;13.406;2022-07-10T01:46:02;14.10;99.90
25963;DHT22;13760;52.588;13.406;2022-07-10T01:48:28;14.10;99.90
25963;DHT22;13760;52.588;13.406;2022-07-10T01:50:53;14.10;99.90
25963;DHT22;13760;52.588;13.406;2022-07-10T01:53:19;14.10;99.90
25963;DHT22;13760;52.588;13.406;2022-07-10T01:55:44;14.10;99.90
25963;DHT22;13760;52.588;13.406;2022-07-10T01:58:10;14.10;99.90
25963;DHT22;13760;52.588;13.406;2022-07-10T02:00:36;14.10;99.90
25963;DHT22;13760;52.588;13.406;2022-07-10T02:03:01;14.10;99.90
25963;DHT22;13760;52.588;13.406;2022-07-10T02:05:45;14.10;99.90
25963;DHT22;13760;52.588;13.406;2022-07-10T02:08:11;14.10;99.90
25963;DHT22;13760;52.588;13.406;2022-07-10T02:10:40;14.10;99.90
25963;DHT22;13760;52.588;13.406;2022-07-10T02:13:06;14.10;99.90
25963;DHT22;13760;52.588;13.406;2022-07-10T02:18:27;14.10;99.90
25963;DHT22;13760;52.588;13.406;2022-07-10T02:20:57;14.10;99.90
25963;DHT22;13760;52.588;13.406;2022-07-10T02:23:22;14.10;99.90
25963;DHT22;13760;52.588;13.406;2022-07-10T02:25:48;14.10;99.90
25963;DHT22;13760;52.588;13.406;2022-07-10T02:28:13;14.10;99.90
25963;DHT22;13760;52.588;13.406;2022-07-10T02:30:39;14.10;99.90
25963;DHT22;13760;52.588;13.406;2022-07-10T02:33:04;14.10;99.90
25963;DHT22;13760;52.588;13.406;2022-07-10T02:35:30;14.00;99.90
25963;DHT22;13760;52.588;13.406;2022-07-10T02:37:56;14.00;99.90
25963;DHT22;13760;52.588;13.406;2022-07-10T02:40:22;14.00;99.90
25963;DHT22;13760;52.588;13.406;2022-07-10T02:42:47;14.00;99.90
25963;DHT22;13760;52.588;13.406;2022-07-10T02:45:13;14.00;99.90
25963;DHT22;13760;52.588;13.406;2022-07-10T02:47:38;14.00;99.90
25963;DHT22;13760;52.588;13.406;2022-07-10T02:50:04;13.90;99.90
25963;DHT22;13760;52.588;13.406;2022-07-10T02:52:30;13.90;99.90
25963;DHT22;13760;52.588;13.406;2022-07-10T02:54:56;13.90;99.90
25963;DHT22;13760;52.588;13.406;2022-07-10T02:57:22;13.90;99.90
25963;DHT22;13760;52.588;13.406;2022-07-10T02:59:48;13.90;99.90
25963;DHT22;13760;52.588;13.406;2022-07-10T03:02:14;13.90;99.90
25963;DHT22;13760;52.588;13.406;2022-07-10T03:04:40;13.80;99.90
25963;DHT22;13760;52.588;13.406;2022-07-10T03:07:06;13.80;99.90
25963;DHT22;13760;52.588;13.406;2022-07-10T03:09:31;13.80;99.90
25963;DHT22;13760;52.588;13.406;2022-07-10T03:11:57;13.80;99.90
25963;DHT22;13760;52.588;13.406;2022-07-10T03:14:22;13.70;99.90
25963;DHT22;13760;52.588;13.406;2022-07-10T03:16:48;13.80;99.90
25963;DHT22;13760;52.588;13.406;2022-07-10T03:19:13;13.70;99.90
25963;DHT22;13760;52.588;13.406;2022-07-10T03:21:39;13.70;99.90
25963;DHT22;13760;52.588;13.406;2022-07-10T03:24:05;13.70;99.90
25963;DHT22;13760;52.588;13.406;2022-07-10T03:26:31;13.80;99.90
25963;DHT22;13760;52.588;13.406;2022-07-10T03:28:57;13.70;99.90
25963;DHT22;13760;52.588;13.406;2022-07-10T03:31:22;13.80;99.90
25963;DHT22;13760;52.588;13.406;2022-07-10T03:33:48;13.70;99.90
25963;DHT22;13760;52.588;13.406;2022-07-10T03:36:14;13.70;99.90
25963;DHT22;13760;52.588;13.406;2022-07-10T03:38:40;13.70;99.90
25963;DHT22;13760;52.588;13.406;2022-07-10T03:41:06;13.70;99.90
25963;DHT22;13760;52.588;13.406;2022-07-10T03:43:31;13.70;99.90
25963;DHT22;13760;52.588;13.406;2022-07-10T03:45:59;13.70;99.90
25963;DHT22;13760;52.588;13.406;2022-07-10T03:48:27;13.70;99.90
25963;DHT22;13760;52.588;13.406;2022-07-10T03:50:52;13.70;99.90
25963;DHT22;13760;52.588;13.406;2022-07-10T03:53:19;13.70;99.90
25963;DHT22;13760;52.588;13.406;2022-07-10T03:55:44;13.80;99.90
25963;DHT22;13760;52.588;13.406;2022-07-10T03:58:10;13.80;99.90
25963;DHT22;13760;52.588;13.406;2022-07-10T04:00:36;13.80;99.90
25963;DHT22;13760;52.588;13.406;2022-07-10T04:03:06;13.80;99.90
25963;DHT22;13760;52.588;13.406;2022-07-10T04:05:32;13.70;99.90
25963;DHT22;13760;52.588;13.406;2022-07-10T04:07:59;13.70;99.90
25963;DHT22;13760;52.588;13.406;2022-07-10T04:10:26;13.70;99.90
25963;DHT22;13760;52.588;13.406;2022-07-10T04:12:53;13.70;99.90
25963;DHT22;13760;52.588;13.406;2022-07-10T04:15:19;13.70;99.90
25963;DHT22;13760;52.588;13.406;2022-07-10T04:17:45;13.80;99.90
25963;DHT22;13760;52.588;13.406;2022-07-10T04:20:11;13.80;99.90
25963;DHT22;13760;52.588;13.406;2022-07-10T04:22:37;13.80;99.90
25963;DHT22;13760;52.588;13.406;2022-07-10T04:25:03;13.90;99.90
25963;DHT22;13760;52.588;13.406;2022-07-10T04:27:29;13.80;99.90
25963;DHT22;13760;52.588;13.406;2022-07-10T04:29:55;13.90;99.90
25963;DHT22;13760;52.588;13.406;2022-07-10T04:32:21;13.80;99.90
25963;DHT22;13760;52.588;13.406;2022-07-10T04:34:47;13.80;99.90
25963;DHT22;13760;52.588;13.406;2022-07-10T04:37:12;13.80;99.90
25963;DHT22;13760;52.588;13.406;2022-07-10T04:39:43;13.80;99.90
25963;DHT22;13760;52.588;13.406;2022-07-10T04:42:09;13.80;99.90
25963;DHT22;13760;52.588;13.406;2022-07-10T04:44:35;13.80;99.90
25963;DHT22;13760;52.588;13.406;2022-07-10T04:47:02;13.90;99.90
25963;DHT22;13760;52.588;13.406;2022-07-10T04:49:30;13.90;99.90
25963;DHT22;13760;52.588;13.406;2022-07-10T04:51:56;13.90;99.90
25963;DHT22;13760;52.588;13.406;2022-07-10T04:54:37;13.90;99.90
25963;DHT22;13760;52.588;13.406;2022-07-10T04:57:03;14.00;99.90
25963;DHT22;13760;52.588;13.406;2022-07-10T04:59:28;14.00;99.90
25963;DHT22;13760;52.588;13.406;2022-07-10T05:01:54;14.00;99.90
25963;DHT22;13760;52.588;13.406;2022-07-10T05:04:20;14.10;99.90
25963;DHT22;13760;52.588;13.406;2022-07-10T05:06:46;14.00;99.90
25963;DHT22;13760;52.588;13.406;2022-07-10T05:09:11;14.00;99.90
25963;DHT22;13760;52.588;13.406;2022-07-10T05:11:37;14.10;99.90
25963;DHT22;13760;52.588;13.406;2022-07-10T05:14:02;14.10;99.90
25963;DHT22;13760;52.588;13.406;2022-07-10T05:16:28;14.10;99.90
25963;DHT22;13760;52.588;13.406;2022-07-10T05:18:53;14.00;99.90
25963;DHT22;13760;52.588;13.406;2022-07-10T05:21:19;14.00;99.90
25963;DHT22;13760;52.588;13.406;2022-07-10T05:23:44;14.10;99.90
25963;DHT22;13760;52.588;13.406;2022-07-10T05:26:10;14.10;99.90
25963;DHT22;13760;52.588;13.406;2022-07-10T05:28:36;14.20;99.90
25963;DHT22;13760;52.588;13.406;2022-07-10T05:31:01;14.20;99.90
25963;DHT22;13760;52.588;13.406;2022-07-10T05:33:27;14.30;99.90
25963;DHT22;13760;52.588;13.406;2022-07-10T05:35:56;14.30;99.90
25963;DHT22;13760;52.588;13.406;2022-07-10T05:38:22;14.30;99.90
25963;DHT22;13760;52.588;13.406;2022-07-10T05:40:47;14.40;99.90
25963;DHT22;13760;52.588;13.406;2022-07-10T05:43:14;14.40;99.90
25963;DHT22;13760;52.588;13.406;2022-07-10T05:46:09;14.40;99.90
25963;DHT22;13760;52.588;13.406;2022-07-10T05:48:35;14.50;99.90
25963;DHT22;13760;52.588;13.406;2022-07-10T05:51:01;14.40;99.90
25963;DHT22;13760;52.588;13.406;2022-07-10T05:53:26;14.40;99.90
25963;DHT22;13760;52.588;13.406;2022-07-10T05:55:52;14.50;99.90
25963;DHT22;13760;52.588;13.406;2022-07-10T05:58:18;14.50;99.90
25963;DHT22;13760;52.588;13.406;2022-07-10T06:00:43;14.50;99.90
25963;DHT22;13760;52.588;13.406;2022-07-10T06:03:11;14.50;99.90
25963;DHT22;13760;52.588;13.406;2022-07-10T06:05:37;14.50;99.90
25963;DHT22;13760;52.588;13.406;2022-07-10T06:08:06;14.50;99.90
25963;DHT22;13760;52.588;13.406;2022-07-10T06:10:35;14.50;99.90
25963;DHT22;13760;52.588;13.406;2022-07-10T06:13:01;14.50;99.90
25963;DHT22;13760;52.588;13.406;2022-07-10T06:15:27;14.40;99.90
25963;DHT22;13760;52.588;13.406;2022-07-10T06:17:56;14.50;99.90
25963;DHT22;13760;52.588;13.406;2022-07-10T06:20:22;14.50;99.90
25963;DHT22;13760;52.588;13.406;2022-07-10T06:22:47;14.50;99.90
25963;DHT22;13760;52.588;13.406;2022-07-10T06:25:19;14.50;99.90
25963;DHT22;13760;52.588;13.406;2022-07-10T06:27:45;14.50;99.90
25963;DHT22;13760;52.588;13.406;2022-07-10T06:30:11;14.60;99.90
25963;DHT22;13760;52.588;13.406;2022-07-10T06:32:36;14.70;99.90
25963;DHT22;13760;52.588;13.406;2022-07-10T06:35:02;14.70;99.90
25963;DHT22;13760;52.588;13.406;2022-07-10T06:37:30;14.80;99.90
25963;DHT22;13760;52.588;13.406;2022-07-10T06:39:56;14.80;99.90
25963;DHT22;13760;52.588;13.406;2022-07-10T06:42:21;14.80;99.90
25963;DHT22;13760;52.588;13.406;2022-07-10T06:44:47;14.80;99.90
25963;DHT22;13760;52.588;13.406;2022-07-10T06:47:15;14.80;99.90
25963;DHT22;13760;52.588;13.406;2022-07-10T06:50:04;14.90;99.90
25963;DHT22;13760;52.588;13.406;2022-07-10T06:52:32;14.90;99.90
25963;DHT22;13760;52.588;13.406;2022-07-10T06:54:59;14.90;99.90
25963;DHT22;13760;52.588;13.406;2022-07-10T06:57:25;15.00;99.90
25963;DHT22;13760;52.588;13.406;2022-07-10T06:59:51;15.00;99.90
25963;DHT22;13760;52.588;13.406;2022-07-10T07:02:18;15.20;99.90
25963;DHT22;13760;52.588;13.406;2022-07-10T07:04:43;15.30;99.90
25963;DHT22;13760;52.588;13.406;2022-07-10T07:07:41;15.40;99.90
25963;DHT22;13760;52.588;13.406;2022-07-10T07:10:30;15.50;99.90
25963;DHT22;13760;52.588;13.406;2022-07-10T07:13:08;15.70;99.90
25963;DHT22;13760;52.588;13.406;2022-07-10T07:16:05;15.80;99.90
25963;DHT22;13760;52.588;13.406;2022-07-10T07:18:37;15.90;99.90
25963;DHT22;13760;52.588;13.406;2022-07-10T07:21:12;16.00;99.90
25963;DHT22;13760;52.588;13.406;2022-07-10T07:23:56;16.00;99.90
25963;DHT22;13760;52.588;13.406;2022-07-10T07:26:31;16.10;99.90
25963;DHT22;13760;52.588;13.406;2022-07-10T07:29:23;16.10;99.90
25963;DHT22;13760;52.588;13.406;2022-07-10T07:31:49;16.00;99.90
25963;DHT22;13760;52.588;13.406;2022-07-10T07:34:15;16.10;99.90
25963;DHT22;13760;52.588;13.406;2022-07-10T07:36:41;16.20;99.90
25963;DHT22;13760;52.588;13.406;2022-07-10T07:39:06;16.30;99.90
25963;DHT22;13760;52.588;13.406;2022-07-10T07:41:35;16.30;99.90
25963;DHT22;13760;52.588;13.406;2022-07-10T07:44:09;16.50;99.90
25963;DHT22;13760;52.588;13.406;2022-07-10T07:46:49;16.60;99.90
25963;DHT22;13760;52.588;13.406;2022-07-10T07:49:14;16.60;99.90
25963;DHT22;13760;52.588;13.406;2022-07-10T07:51:46;16.60;99.90
25963;DHT22;13760;52.588;13.406;2022-07-10T07:54:25;16.60;99.90
25963;DHT22;13760;52.588;13.406;2022-07-10T07:56:51;16.70;99.90
25963;DHT22;13760;52.588;13.406;2022-07-10T07:59:19;16.70;99.90
25963;DHT22;13760;52.588;13.406;2022-07-10T08:01:44;16.70;99.90
25963;DHT22;13760;52.588;13.406;2022-07-10T08:04:10;16.80;99.90
25963;DHT22;13760;52.588;13.406;2022-07-10T08:06:37;16.70;99.90
25963;DHT22;13760;52.588;13.406;2022-07-10T08:09:02;16.80;99.90
25963;DHT22;13760;52.588;13.406;2022-07-10T08:11:28;16.80;99.90
25963;DHT22;13760;52.588;13.406;2022-07-10T08:13:56;16.90;99.90
25963;DHT22;13760;52.588;13.406;2022-07-10T08:16:21;16.90;99.90
25963;DHT22;13760;52.588;13.406;2022-07-10T08:18:47;17.00;99.90
25963;DHT22;13760;52.588;13.406;2022-07-10T08:21:32;17.00;99.90
25963;DHT22;13760;52.588;13.406;2022-07-10T08:24:06;17.00;99.90
25963;DHT22;13760;52.588;13.406;2022-07-10T08:26:33;17.10;99.90
25963;DHT22;13760;52.588;13.406;2022-07-10T08:29:05;17.10;99.90
25963;DHT22;13760;52.588;13.406;2022-07-10T08:31:49;17.20;99.90
25963;DHT22;13760;52.588;13.406;2022-07-10T08:34:17;17.20;99.90
25963;DHT22;13760;52.588;13.406;2022-07-10T08:36:43;17.20;99.90
25963;DHT22;13760;52.588;13.406;2022-07-10T08:39:11;17.20;99.90
25963;DHT22;13760;52.588;13.406;2022-07-10T08:41:40;17.30;99.90
25963;DHT22;13760;52.588;13.406;2022-07-10T08:44:08;17.30;99.90
25963;DHT22;13760;52.588;13.406;2022-07-10T08:46:34;17.30;99.90
25963;DHT22;13760;52.588;13.406;2022-07-10T08:49:07;17.20;99.90
25963;DHT22;13760;52.588;13.406;2022-07-10T08:51:46;17.30;99.90
25963;DHT22;13760;52.588;13.406;2022-07-10T08:54:14;17.30;99.90
25963;DHT22;13760;52.588;13.406;2022-07-10T08:56:53;17.40;99.90
25963;DHT22;13760;52.588;13.406;2022-07-10T08:59:22;17.40;99.90
25963;DHT22;13760;52.588;13.406;2022-07-10T09:01:51;17.30;99.90
25963;DHT22;13760;52.588;13.406;2022-07-10T09:04:23;17.40;99.90
25963;DHT22;13760;52.588;13.406;2022-07-10T09:06:52;17.40;99.90
25963;DHT22;13760;52.588;13.406;2022-07-10T09:09:29;17.50;99.90
25963;DHT22;13760;52.588;13.406;2022-07-10T09:11:58;17.60;99.90
25963;DHT22;13760;52.588;13.406;2022-07-10T09:14:26;17.60;99.90
25963;DHT22;13760;52.588;13.406;2022-07-10T09:16:53;17.60;99.90
25963;DHT22;13760;52.588;13.406;2022-07-10T09:21:46;17.70;99.90
25963;DHT22;13760;52.588;13.406;2022-07-10T09:24:13;17.80;99.90
25963;DHT22;13760;52.588;13.406;2022-07-10T09:26:39;17.70;99.90
25963;DHT22;13760;52.588;13.406;2022-07-10T09:29:12;17.70;99.90
25963;DHT22;13760;52.588;13.406;2022-07-10T09:32:03;17.70;99.90
25963;DHT22;13760;52.588;13.406;2022-07-10T09:34:42;17.80;99.90
25963;DHT22;13760;52.588;13.406;2022-07-10T09:37:26;17.90;99.90
25963;DHT22;13760;52.588;13.406;2022-07-10T09:40:07;18.00;99.90
25963;DHT22;13760;52.588;13.406;2022-07-10T09:42:43;18.00;99.90
25963;DHT22;13760;52.588;13.406;2022-07-10T09:45:24;18.10;99.90
25963;DHT22;13760;52.588;13.406;2022-07-10T09:50:52;18.20;99.90
25963;DHT22;13760;52.588;13.406;2022-07-10T09:53:21;18.30;99.90
25963;DHT22;13760;52.588;13.406;2022-07-10T09:56:16;18.40;99.90
25963;DHT22;13760;52.588;13.406;2022-07-10T09:58:52;18.40;99.90
25963;DHT22;13760;52.588;13.406;2022-07-10T10:04:30;18.50;99.90
25963;DHT22;13760;52.588;13.406;2022-07-10T10:07:12;18.50;99.90
25963;DHT22;13760;52.588;13.406;2022-07-10T10:09:47;18.40;99.90
25963;DHT22;13760;52.588;13.406;2022-07-10T10:12:58;18.30;99.90
25963;DHT22;13760;52.588;13.406;2022-07-10T10:15:38;18.20;99.90
25963;DHT22;13760;52.588;13.406;2022-07-10T10:18:23;18.20;99.90
25963;DHT22;13760;52.588;13.406;2022-07-10T10:20:51;18.10;99.90
25963;DHT22;13760;52.588;13.406;2022-07-10T10:23:18;18.10;99.90
25963;DHT22;13760;52.588;13.406;2022-07-10T10:29:06;18.20;99.90
25963;DHT22;13760;52.588;13.406;2022-07-10T10:32:00;18.30;99.90
25963;DHT22;13760;52.588;13.406;2022-07-10T10:34:47;18.30;99.90
25963;DHT22;13760;52.588;13.406;2022-07-10T10:37:49;18.40;99.90
25963;DHT22;13760;52.588;13.406;2022-07-10T10:40:56;18.20;99.90
25963;DHT22;13760;52.588;13.406;2022-07-10T10:47:17;18.20;99.90
25963;DHT22;13760;52.588;13.406;2022-07-10T10:53:03;18.30;99.90
25963;DHT22;13760;52.588;13.406;2022-07-10T10:55:37;18.40;99.90
25963;DHT22;13760;52.588;13.406;2022-07-10T10:58:21;18.50;99.90
25963;DHT22;13760;52.588;13.406;2022-07-10T11:00:51;18.50;99.90
25963;DHT22;13760;52.588;13.406;2022-07-10T11:03:25;18.50;99.90
25963;DHT22;13760;52.588;13.406;2022-07-10T11:05:57;18.50;99.90
25963;DHT22;13760;52.588;13.406;2022-07-10T11:08:46;18.50;99.90
25963;DHT22;13760;52.588;13.406;2022-07-10T11:11:36;18.60;99.90
25963;DHT22;13760;52.588;13.406;2022-07-10T11:14:09;18.50;99.90
25963;DHT22;13760;52.588;13.406;2022-07-10T11:20:10;18.50;99.90
25963;DHT22;13760;52.588;13.406;2022-07-10T11:26:19;18.60;99.90
25963;DHT22;13760;52.588;13.406;2022-07-10T11:28:55;18.70;99.90
25963;DHT22;13760;52.588;13.406;2022-07-10T11:31:45;18.80;99.90
25963;DHT22;13760;52.588;13.406;2022-07-10T11:34:52;18.90;99.90
25963;DHT22;13760;52.588;13.406;2022-07-10T11:37:30;19.10;99.90
25963;DHT22;13760;52.588;13.406;2022-07-10T11:40:10;19.30;99.90
25963;DHT22;13760;52.588;13.406;2022-07-10T11:42:54;19.50;99.90
25963;DHT22;13760;52.588;13.406;2022-07-10T11:48:39;19.60;99.30
25963;DHT22;13760;52.588;13.406;2022-07-10T11:51:16;19.40;99.70
25963;DHT22;13760;52.588;13.406;2022-07-10T11:53:55;19.30;99.90
25963;DHT22;13760;52.588;13.406;2022-07-10T11:56:22;19.10;99.90
25963;DHT22;13760;52.588;13.406;2022-07-10T12:01:24;19.00;99.90
25963;DHT22;13760;52.588;13.406;2022-07-10T12:04:03;19.10;99.90
25963;DHT22;13760;52.588;13.406;2022-07-10T12:06:30;19.30;99.90
25963;DHT22;13760;52.588;13.406;2022-07-10T12:09:02;19.60;99.90
25963;DHT22;13760;52.588;13.406;2022-07-10T12:11:28;19.90;99.50
25963;DHT22;13760;52.588;13.406;2022-07-10T12:14:09;20.10;99.00
25963;DHT22;13760;52.588;13.406;2022-07-10T12:16:35;20.30;97.20
25963;DHT22;13760;52.588;13.406;2022-07-10T12:19:02;20.20;97.00
25963;DHT22;13760;52.588;13.406;2022-07-10T12:21:28;20.20;97.70
25963;DHT22;13760;52.588;13.406;2022-07-10T12:23:55;20.30;97.90
25963;DHT22;13760;52.588;13.406;2022-07-10T12:26:21;20.30;97.50
25963;DHT22;13760;52.588;13.406;2022-07-10T12:28:56;20.40;97.90
25963;DHT22;13760;52.588;13.406;2022-07-10T12:31:23;20.50;97.60
25963;DHT22;13760;52.588;13.406;2022-07-10T12:34:15;20.50;97.20
25963;DHT22;13760;52.588;13.406;2022-07-10T12:36:52;20.40;96.90
25963;DHT22;13760;52.588;13.406;2022-07-10T12:39:30;20.40;96.70
25963;DHT22;13760;52.588;13.406;2022-07-10T12:42:02;20.20;96.30
25963;DHT22;13760;52.588;13.406;2022-07-10T12:45:20;20.10;97.00
25963;DHT22;13760;52.588;13.406;2022-07-10T12:47:47;20.10;97.00
25963;DHT22;13760;52.588;13.406;2022-07-10T12:50:17;20.10;96.40
25963;DHT22;13760;52.588;13.406;2022-07-10T12:53:10;20.10;97.70
25963;DHT22;13760;52.588;13.406;2022-07-10T12:55:39;20.10;97.80
25963;DHT22;13760;52.588;13.406;2022-07-10T12:58:12;20.40;97.30
25963;DHT22;13760;52.588;13.406;2022-07-10T13:00:47;20.40;96.70
25963;DHT22;13760;52.588;13.406;2022-07-10T13:03:25;20.50;96.80
25963;DHT22;13760;52.588;13.406;2022-07-10T13:09:29;20.60;95.30
25963;DHT22;13760;52.588;13.406;2022-07-10T13:11:58;20.50;96.00
25963;DHT22;13760;52.588;13.406;2022-07-10T13:18:16;20.40;96.10
25963;DHT22;13760;52.588;13.406;2022-07-10T13:20:44;20.50;96.50
25963;DHT22;13760;52.588;13.406;2022-07-10T13:23:10;20.60;96.70
25963;DHT22;13760;52.588;13.406;2022-07-10T13:25:40;20.80;95.90
25963;DHT22;13760;52.588;13.406;2022-07-10T13:28:06;21.00;96.30
25963;DHT22;13760;52.588;13.406;2022-07-10T13:30:36;21.10;95.10
25963;DHT22;13760;52.588;13.406;2022-07-10T13:33:13;21.00;95.10
25963;DHT22;13760;52.588;13.406;2022-07-10T13:35:41;20.90;98.10
25963;DHT22;13760;52.588;13.406;2022-07-10T13:38:07;20.60;96.20
25963;DHT22;13760;52.588;13.406;2022-07-10T13:40:38;20.60;95.70
25963;DHT22;13760;52.588;13.406;2022-07-10T13:43:11;20.60;96.40
25963;DHT22;13760;52.588;13.406;2022-07-10T13:48:39;21.00;94.90
25963;DHT22;13760;52.588;13.406;2022-07-10T13:51:05;21.10;94.80
25963;DHT22;13760;52.588;13.406;2022-07-10T13:53:43;21.40;94.80
25963;DHT22;13760;52.588;13.406;2022-07-10T13:56:14;21.50;93.60
25963;DHT22;13760;52.588;13.406;2022-07-10T13:58:49;21.20;93.30
25963;DHT22;13760;52.588;13.406;2022-07-10T14:01:24;20.90;93.60
25963;DHT22;13760;52.588;13.406;2022-07-10T14:03:55;20.80;93.80
25963;DHT22;13760;52.588;13.406;2022-07-10T14:06:23;20.50;94.10
25963;DHT22;13760;52.588;13.406;2022-07-10T14:08:54;20.60;94.30
25963;DHT22;13760;52.588;13.406;2022-07-10T14:11:40;21.00;93.90
25963;DHT22;13760;52.588;13.406;2022-07-10T14:14:12;21.40;92.60
25963;DHT22;13760;52.588;13.406;2022-07-10T14:16:37;22.00;91.40
25963;DHT22;13760;52.588;13.406;2022-07-10T14:19:03;22.30;91.20
25963;DHT22;13760;52.588;13.406;2022-07-10T14:21:29;22.60;90.00
25963;DHT22;13760;52.588;13.406;2022-07-10T14:23:54;22.70;86.70
25963;DHT22;13760;52.588;13.406;2022-07-10T14:26:22;22.50;87.70
25963;DHT22;13760;52.588;13.406;2022-07-10T14:28:48;22.40;88.50
25963;DHT22;13760;52.588;13.406;2022-07-10T14:31:14;22.50;90.50
25963;DHT22;13760;52.588;13.406;2022-07-10T14:33:42;22.60;85.70
25963;DHT22;13760;52.588;13.406;2022-07-10T14:36:21;22.70;86.50
25963;DHT22;13760;52.588;13.406;2022-07-10T14:38:55;22.50;86.60
25963;DHT22;13760;52.588;13.406;2022-07-10T14:41:24;22.10;85.90
25963;DHT22;13760;52.588;13.406;2022-07-10T14:43:53;21.70;87.60
25963;DHT22;13760;52.588;13.406;2022-07-10T14:46:26;21.30;87.00
25963;DHT22;13760;52.588;13.406;2022-07-10T14:48:55;21.20;89.50
25963;DHT22;13760;52.588;13.406;2022-07-10T14:51:21;21.10;90.20
25963;DHT22;13760;52.588;13.406;2022-07-10T14:53:46;21.10;88.50
25963;DHT22;13760;52.588;13.406;2022-07-10T14:56:13;21.00;88.80
25963;DHT22;13760;52.588;13.406;2022-07-10T14:58:42;20.90;90.20
25963;DHT22;13760;52.588;13.406;2022-07-10T15:01:07;20.80;89.40
25963;DHT22;13760;52.588;13.406;2022-07-10T15:03:33;20.70;89.60
25963;DHT22;13760;52.588;13.406;2022-07-10T15:05:59;20.70;90.70
25963;DHT22;13760;52.588;13.406;2022-07-10T15:08:25;20.70;90.70
25963;DHT22;13760;52.588;13.406;2022-07-10T15:10:51;20.80;91.40
25963;DHT22;13760;52.588;13.406;2022-07-10T15:13:16;20.80;89.40
25963;DHT22;13760;52.588;13.406;2022-07-10T15:15:45;20.90;90.60
25963;DHT22;13760;52.588;13.406;2022-07-10T15:18:13;20.90;90.20
25963;DHT22;13760;52.588;13.406;2022-07-10T15:20:39;20.90;90.10
25963;DHT22;13760;52.588;13.406;2022-07-10T15:23:05;20.90;90.10
25963;DHT22;13760;52.588;13.406;2022-07-10T15:25:30;20.90;89.40
25963;DHT22;13760;52.588;13.406;2022-07-10T15:27:56;20.90;89.40
25963;DHT22;13760;52.588;13.406;2022-07-10T15:30:22;20.80;90.50
25963;DHT22;13760;52.588;13.406;2022-07-10T15:32:51;20.70;89.90
25963;DHT22;13760;52.588;13.406;2022-07-10T15:35:22;20.70;90.30
25963;DHT22;13760;52.588;13.406;2022-07-10T15:37:52;20.70;90.10
25963;DHT22;13760;52.588;13.406;2022-07-10T15:40:18;20.80;90.60
25963;DHT22;13760;52.588;13.406;2022-07-10T15:42:47;20.70;90.60
25963;DHT22;13760;52.588;13.406;2022-07-10T15:45:16;20.70;89.90
25963;DHT22;13760;52.588;13.406;2022-07-10T15:47:48;20.60;89.00
25963;DHT22;13760;52.588;13.406;2022-07-10T15:50:24;20.50;90.40
25963;DHT22;13760;52.588;13.406;2022-07-10T15:52:59;20.50;89.70
25963;DHT22;13760;52.588;13.406;2022-07-10T15:55:28;20.30;89.30
25963;DHT22;13760;52.588;13.406;2022-07-10T15:58:00;20.20;90.00
25963;DHT22;13760;52.588;13.406;2022-07-10T16:00:34;20.20;90.50
25963;DHT22;13760;52.588;13.406;2022-07-10T16:03:00;20.20;90.70
25963;DHT22;13760;52.588;13.406;2022-07-10T16:05:35;20.20;90.40
25963;DHT22;13760;52.588;13.406;2022-07-10T16:08:06;20.20;90.40
25963;DHT22;13760;52.588;13.406;2022-07-10T16:10:32;20.30;90.20
25963;DHT22;13760;52.588;13.406;2022-07-10T16:13:01;20.30;90.70
25963;DHT22;13760;52.588;13.406;2022-07-10T16:15:27;20.20;90.70
25963;DHT22;13760;52.588;13.406;2022-07-10T16:17:53;20.20;91.70